This is the latest recevied weather packets stored in our database for station/object N8QQQ. If no packets are shown the sender has not sent any weather packets the latest 1 day(s).
| Time | Temp. | Humidity | Pressure | Rain* | Wind** | Luminosity | Snow |
|---|---|---|---|---|---|---|---|
| 1778064847 | -0.56° C | 76% | 1010.5 hPa | 0 mm | - | 3 W/m² | - |
| 1778063940 | -0.56° C | 77% | 1010.5 hPa | 0 mm | - | 1 W/m² | - |
| 1778063637 | -0.56° C | 77% | 1010.7 hPa | 0 mm | - | 1 W/m² | - |
| 1778063334 | -0.56° C | 76% | 1010.2 hPa | 0 mm | - | 1 W/m² | - |
| 1778062729 | -0.56° C | 77% | 1010.3 hPa | 0 mm | - | 0 W/m² | - |
| 1778062123 | -0.56° C | 76% | 1010.3 hPa | 0 mm | - | 0 W/m² | - |
| 1778060913 | -0.56° C | 78% | 1010.4 hPa | 0 mm | - | 0 W/m² | - |
| 1778060612 | -0.56° C | 79% | 1010.5 hPa | 0 mm | - | 0 W/m² | - |
| 1778059704 | -0.56° C | 78% | 1010.3 hPa | 0 mm | - | 0 W/m² | - |
| 1778059402 | -0.56° C | 79% | 1010.2 hPa | 0 mm | - | 0 W/m² | - |
| 1778058796 | -0.56° C | 78% | 1010.1 hPa | 0 mm | - | 0 W/m² | - |
| 1778058494 | -0.56° C | 77% | 1010.2 hPa | 0 mm | - | 0 W/m² | - |
| 1778058191 | -1.11° C | 78% | 1010.2 hPa | 0 mm | - | 0 W/m² | - |
| 1778056976 | -1.11° C | 81% | 1010.2 hPa | 0 mm | - | 0 W/m² | - |
| 1778055462 | -2.22° C | 90% | 1010.3 hPa | 0 mm | - | 0 W/m² | - |
| 1778055159 | -2.22° C | 90% | 1010.2 hPa | 0 mm | - | 0 W/m² | - |
| 1778053342 | -3.33° C | 91% | 1010.2 hPa | 0 mm | - | 0 W/m² | - |
| 1778053040 | -3.33° C | 91% | 1010.2 hPa | 0 mm | - | 0 W/m² | - |
| 1778052434 | -3.33° C | 90% | 1010 hPa | 0 mm | - | 0 W/m² | - |
| 1778052132 | -3.33° C | 90% | 1009.9 hPa | 0 mm | - | 0 W/m² | - |
| 1778051829 | -3.33° C | 91% | 1009.9 hPa | 0 mm | - | 0 W/m² | - |
| 1778051527 | -3.89° C | 91% | 1010 hPa | 0 mm | - | 0 W/m² | - |
| 1778050921 | -3.89° C | 92% | 1009.8 hPa | 0 mm | - | 0 W/m² | - |
| 1778050315 | -4.44° C | 92% | 1009.9 hPa | 0 mm | - | 0 W/m² | - |
| 1778050012 | -4.44° C | 92% | 1009.9 hPa | 0 mm | - | 0 W/m² | - |
* Rain latest hour (hover to see other rain measurements)
** Current wind speed in m/s (hover to see current wind gust speed)